createdAt,value
2022-08-07T00:01:43.746Z,3.45
2022-08-07T00:04:05.799Z,3.85
2022-08-07T00:06:33.893Z,3.03
2022-08-07T00:09:16.098Z,2.70
2022-08-07T00:11:54.280Z,3.22
2022-08-07T00:14:30.347Z,3.28
2022-08-07T00:17:02.491Z,2.83
2022-08-07T00:19:59.670Z,3.03
2022-08-07T00:22:24.791Z,3.20
2022-08-07T00:25:02.660Z,3.20
2022-08-07T00:27:35.797Z,4.40
2022-08-07T00:30:21.576Z,2.90
2022-08-07T00:32:54.066Z,3.05
2022-08-07T00:35:23.173Z,2.58
2022-08-07T00:37:50.240Z,3.15
2022-08-07T00:40:36.291Z,3.38
2022-08-07T00:43:09.969Z,3.03
2022-08-07T00:45:39.206Z,2.92
2022-08-07T00:48:10.126Z,2.15
2022-08-07T00:50:46.130Z,2.88
2022-08-07T00:53:17.638Z,3.03
2022-08-07T00:56:02.100Z,2.70
2022-08-07T00:58:30.634Z,3.30
2022-08-07T01:00:58.724Z,2.75
2022-08-07T01:03:57.392Z,2.42
2022-08-07T01:06:12.771Z,2.30
2022-08-07T01:08:43.065Z,2.83
2022-08-07T01:12:10.137Z,2.58
2022-08-07T01:13:57.153Z,1.95
2022-08-07T01:16:30.225Z,1.88
2022-08-07T01:18:58.156Z,1.92
2022-08-07T01:21:26.972Z,2.60
2022-08-07T01:23:56.899Z,2.85
2022-08-07T01:26:26.018Z,3.20
2022-08-07T01:28:53.896Z,2.70
2022-08-07T01:31:27.775Z,2.10
2022-08-07T01:34:08.980Z,1.90
2022-08-07T01:36:40.686Z,2.65
2022-08-07T01:39:10.104Z,2.92
2022-08-07T01:41:38.978Z,2.40
2022-08-07T01:44:07.659Z,2.20
2022-08-07T01:46:34.656Z,2.90
2022-08-07T01:49:02.681Z,2.38
2022-08-07T01:52:02.439Z,1.90
2022-08-07T01:54:36.343Z,2.40
2022-08-07T01:57:34.154Z,2.20
2022-08-07T02:00:03.091Z,2.42
2022-08-07T02:03:12.286Z,1.80
2022-08-07T02:05:48.222Z,2.60
2022-08-07T02:08:27.782Z,2.83
2022-08-07T02:10:59.400Z,2.65
2022-08-07T02:13:56.669Z,2.60
2022-08-07T02:16:19.623Z,2.60
2022-08-07T02:18:49.242Z,2.60
2022-08-07T02:21:19.196Z,2.45
2022-08-07T02:23:46.494Z,2.03
2022-08-07T02:26:32.464Z,2.50
2022-08-07T02:29:04.946Z,1.95
2022-08-07T02:31:32.643Z,2.22
2022-08-07T02:34:10.899Z,2.10
2022-08-07T02:36:41.280Z,2.30
2022-08-07T02:39:16.793Z,2.10
2022-08-07T02:41:56.640Z,2.10
2022-08-07T02:44:26.848Z,2.28
2022-08-07T02:46:59.862Z,2.80
2022-08-07T02:49:58.349Z,1.73
2022-08-07T02:52:31.170Z,2.55
2022-08-07T02:55:03.697Z,2.67
2022-08-07T02:57:34.233Z,2.38
2022-08-07T03:00:05.112Z,2.00
2022-08-07T03:02:42.055Z,1.98
2022-08-07T03:05:23.242Z,1.85
2022-08-07T03:08:07.748Z,1.40
2022-08-07T03:10:41.036Z,2.03
2022-08-07T03:13:19.585Z,2.10
2022-08-07T03:15:56.576Z,2.13
2022-08-07T03:18:34.178Z,1.60
2022-08-07T03:21:02.190Z,2.13
2022-08-07T03:23:33.815Z,1.50
2022-08-07T03:26:23.442Z,2.10
2022-08-07T03:28:51.554Z,2.15
2022-08-07T03:31:24.589Z,1.92
2022-08-07T03:33:59.116Z,2.10
2022-08-07T03:36:27.982Z,1.90
2022-08-07T03:39:05.523Z,1.50
2022-08-07T03:41:41.776Z,2.05
2022-08-07T03:44:09.643Z,1.45
2022-08-07T03:46:38.019Z,1.88
2022-08-07T03:49:24.889Z,1.90
2022-08-07T03:52:01.898Z,1.92
2022-08-07T03:54:35.473Z,1.85
2022-08-07T03:57:07.296Z,2.03
2022-08-07T03:59:34.609Z,1.75
2022-08-07T04:02:02.029Z,1.90
2022-08-07T04:04:29.020Z,2.20
2022-08-07T04:07:00.118Z,1.90
2022-08-07T04:09:45.405Z,1.70
2022-08-07T04:12:27.339Z,2.05
2022-08-07T04:14:56.873Z,1.42
2022-08-07T04:17:23.604Z,1.48
2022-08-07T04:20:12.572Z,2.40
2022-08-07T04:22:41.321Z,1.42
2022-08-07T04:25:22.539Z,2.25
2022-08-07T04:28:00.357Z,1.85
2022-08-07T04:30:43.818Z,1.73
2022-08-07T04:33:16.668Z,2.33
2022-08-07T04:35:50.565Z,2.30
2022-08-07T04:38:18.649Z,1.80
2022-08-07T04:40:52.531Z,2.17
2022-08-07T04:44:13.062Z,2.10
2022-08-07T04:46:25.693Z,2.35
2022-08-07T04:49:25.440Z,2.15
2022-08-07T04:52:01.313Z,1.67
2022-08-07T04:54:50.417Z,1.67
2022-08-07T04:58:13.924Z,2.30
2022-08-07T05:00:31.019Z,1.80
2022-08-07T05:04:01.145Z,1.80
2022-08-07T05:06:19.124Z,2.15
2022-08-07T05:09:00.814Z,2.17
2022-08-07T05:11:58.334Z,2.38
2022-08-07T05:14:55.702Z,2.92
2022-08-07T05:17:52.231Z,2.60
2022-08-07T05:20:09.935Z,2.03
2022-08-07T05:22:38.977Z,2.95
2022-08-07T05:25:08.425Z,2.85
2022-08-07T05:28:16.140Z,3.17
2022-08-07T05:30:32.842Z,2.78
2022-08-07T05:33:02.361Z,3.20
2022-08-07T05:35:33.472Z,3.15
2022-08-07T05:38:08.342Z,2.85
2022-08-07T05:40:42.799Z,2.72
2022-08-07T05:43:18.835Z,3.67
2022-08-07T05:45:48.306Z,2.80
2022-08-07T05:48:15.500Z,2.65
2022-08-07T05:50:44.029Z,2.75
2022-08-07T05:54:13.023Z,3.35
2022-08-07T05:56:03.120Z,3.13
2022-08-07T05:58:36.664Z,2.95
2022-08-07T06:01:05.950Z,3.22
2022-08-07T06:03:53.742Z,3.42
2022-08-07T06:06:29.878Z,2.35
2022-08-07T06:09:01.010Z,3.33
2022-08-07T06:11:28.001Z,3.13
2022-08-07T06:14:12.048Z,2.78
2022-08-07T06:16:45.714Z,2.92
2022-08-07T06:19:52.006Z,2.17
2022-08-07T06:22:14.460Z,2.42
2022-08-07T06:24:57.689Z,2.25
2022-08-07T06:27:44.334Z,2.92
2022-08-07T06:30:32.196Z,2.13
2022-08-07T06:33:00.074Z,2.53
2022-08-07T06:35:38.992Z,2.50
2022-08-07T06:38:20.293Z,3.85
2022-08-07T06:40:50.956Z,3.38
2022-08-07T06:43:23.421Z,2.67
2022-08-07T06:45:50.468Z,2.60
2022-08-07T06:48:25.018Z,2.50
2022-08-07T06:50:54.342Z,3.05
2022-08-07T06:55:29.297Z,2.40
2022-08-07T06:56:14.788Z,1.63
2022-08-07T07:00:12.996Z,1.88
2022-08-07T07:01:42.070Z,1.63
2022-08-07T07:04:32.243Z,2.08
2022-08-07T07:07:02.559Z,1.95
2022-08-07T07:09:47.389Z,1.95
2022-08-07T07:12:16.561Z,1.58
2022-08-07T07:15:05.080Z,1.70
2022-08-07T07:17:39.440Z,2.30
2022-08-07T07:20:18.893Z,2.10
2022-08-07T07:24:09.693Z,1.92
2022-08-07T07:26:31.623Z,1.90
2022-08-07T07:29:39.147Z,1.65
2022-08-07T07:31:51.497Z,1.60
2022-08-07T07:34:30.806Z,1.85
2022-08-07T07:37:10.078Z,1.85
2022-08-07T07:39:54.732Z,1.88
2022-08-07T07:42:32.665Z,2.53
2022-08-07T07:55:45.544Z,2.25
2022-08-07T07:58:22.691Z,1.42
2022-08-07T08:00:54.105Z,1.80
2022-08-07T08:04:06.555Z,1.90
2022-08-07T08:06:13.475Z,2.17
2022-08-07T08:08:41.999Z,1.70
2022-08-07T08:11:16.592Z,1.90
2022-08-07T08:13:54.956Z,1.50
2022-08-07T08:16:29.950Z,1.80
2022-08-07T08:19:00.512Z,1.63
2022-08-07T08:22:07.903Z,1.65
2022-08-07T08:25:09.370Z,1.80
2022-08-07T08:27:56.500Z,1.77
2022-08-07T08:30:25.793Z,2.17
2022-08-07T08:32:59.974Z,1.75
2022-08-07T08:35:39.265Z,1.83
2022-08-07T08:38:14.655Z,1.80
2022-08-07T08:41:07.054Z,1.75
2022-08-07T08:43:56.198Z,1.73
2022-08-07T08:46:48.847Z,1.98
2022-08-07T08:50:02.152Z,1.70
2022-08-07T08:52:54.698Z,1.70
2022-08-07T08:55:53.398Z,2.10
2022-08-07T08:58:47.149Z,2.03
2022-08-07T09:01:20.673Z,1.77
2022-08-07T09:04:08.559Z,1.45
2022-08-07T09:06:51.542Z,2.08
2022-08-07T09:09:36.602Z,1.88
2022-08-07T09:12:34.435Z,1.52
2022-08-07T09:16:20.678Z,1.48
2022-08-07T09:18:52.906Z,0.90
2022-08-07T09:22:09.696Z,1.63
2022-08-07T09:24:58.619Z,2.25
2022-08-07T09:28:00.185Z,1.88
2022-08-07T09:30:37.238Z,1.60
2022-08-07T09:33:24.439Z,1.67
2022-08-07T09:36:14.098Z,1.63
2022-08-07T09:39:06.275Z,1.75
2022-08-07T09:42:05.911Z,1.90
2022-08-07T09:46:29.054Z,1.83
2022-08-07T09:48:01.399Z,1.77
2022-08-07T09:50:51.377Z,1.98
2022-08-07T09:53:22.831Z,1.55
2022-08-07T09:56:05.240Z,1.67
2022-08-07T09:59:13.810Z,1.67
2022-08-07T10:01:51.903Z,1.45
2022-08-07T10:04:32.769Z,1.52
2022-08-07T10:07:00.761Z,1.50
2022-08-07T10:10:00.272Z,1.77
2022-08-07T10:12:53.218Z,1.90
2022-08-07T10:15:44.402Z,1.45
2022-08-07T10:18:29.228Z,1.60
2022-08-07T10:22:14.175Z,1.42
2022-08-07T10:25:00.845Z,2.10
2022-08-07T10:27:53.686Z,1.65
2022-08-07T10:31:00.699Z,1.58
2022-08-07T10:34:15.592Z,1.58
2022-08-07T10:37:14.005Z,2.17
2022-08-07T10:40:09.111Z,1.90
2022-08-07T10:42:39.207Z,1.88
2022-08-07T10:45:57.384Z,1.35
2022-08-07T10:48:36.501Z,1.92
2022-08-07T10:51:39.554Z,1.88
2022-08-07T10:54:11.465Z,1.50
2022-08-07T10:56:56.917Z,1.67
2022-08-07T10:59:37.047Z,1.58
2022-08-07T11:02:34.270Z,1.60
2022-08-07T11:05:50.982Z,2.03
2022-08-07T11:08:43.461Z,1.92
2022-08-07T11:11:25.655Z,1.58
2022-08-07T11:14:43.826Z,1.77
2022-08-07T11:17:01.749Z,1.75
2022-08-07T11:19:56.902Z,1.27
2022-08-07T11:22:45.843Z,1.70
2022-08-07T11:25:28.015Z,1.20
2022-08-07T11:28:06.789Z,1.42
2022-08-07T11:30:56.332Z,1.52
2022-08-07T11:33:54.267Z,1.55
2022-08-07T11:37:02.663Z,1.42
2022-08-07T11:40:03.386Z,2.30
2022-08-07T11:42:30.490Z,1.60
2022-08-07T11:45:36.475Z,1.58
2022-08-07T11:48:18.146Z,1.70
2022-08-07T11:51:46.787Z,1.55
2022-08-07T11:54:57.664Z,1.42
2022-08-07T11:58:00.879Z,1.60
2022-08-07T12:01:01.717Z,1.95
2022-08-07T12:03:47.889Z,1.52
2022-08-07T12:06:37.844Z,1.40
2022-08-07T12:09:16.366Z,1.40
2022-08-07T12:12:10.013Z,1.20
2022-08-07T12:15:00.182Z,1.48
2022-08-07T12:17:38.418Z,1.40
2022-08-07T12:20:34.967Z,1.52
2022-08-07T12:24:05.589Z,1.83
2022-08-07T12:26:29.753Z,1.67
2022-08-07T12:29:09.162Z,1.40
2022-08-07T12:32:02.115Z,1.63
2022-08-07T12:34:34.545Z,1.40
2022-08-07T12:37:08.421Z,1.60
2022-08-07T12:39:50.819Z,1.63
2022-08-07T12:42:27.490Z,1.40
2022-08-07T12:44:57.778Z,1.40
2022-08-07T12:47:59.252Z,1.55
2022-08-07T12:50:40.078Z,1.48
2022-08-07T12:53:22.539Z,1.70
2022-08-07T12:56:12.225Z,1.30
2022-08-07T12:58:44.198Z,1.55
2022-08-07T13:01:22.382Z,1.58
2022-08-07T13:04:32.586Z,1.60
2022-08-07T13:08:12.983Z,1.70
2022-08-07T13:10:39.268Z,1.45
2022-08-07T13:13:47.178Z,1.08
2022-08-07T13:16:37.068Z,1.60
2022-08-07T13:19:46.152Z,1.38
2022-08-07T13:22:34.135Z,1.50
2022-08-07T13:25:23.911Z,1.67
2022-08-07T13:28:11.104Z,1.92
2022-08-07T13:30:49.059Z,1.63
2022-08-07T13:34:29.851Z,1.33
2022-08-07T13:36:39.585Z,1.52
2022-08-07T13:39:49.481Z,1.42
2022-08-07T13:42:19.206Z,1.50
2022-08-07T13:44:55.386Z,2.17
2022-08-07T13:48:05.551Z,1.25
2022-08-07T13:50:34.238Z,1.30
2022-08-07T13:53:19.348Z,1.83
2022-08-07T13:55:54.605Z,1.60
2022-08-07T13:58:56.625Z,1.35
2022-08-07T14:01:26.213Z,1.50
2022-08-07T14:04:07.284Z,1.75
2022-08-07T14:06:38.486Z,1.67
2022-08-07T14:10:01.974Z,1.52
2022-08-07T14:12:20.815Z,1.80
2022-08-07T14:15:07.743Z,1.60
2022-08-07T14:18:15.836Z,1.52
2022-08-07T14:20:42.772Z,1.83
2022-08-07T14:23:17.968Z,1.40
2022-08-07T14:26:01.597Z,1.60
2022-08-07T14:28:31.227Z,2.08
2022-08-07T14:31:01.581Z,1.45
2022-08-07T14:33:44.144Z,1.42
2022-08-07T14:36:14.987Z,1.70
2022-08-07T14:38:50.544Z,2.00
2022-08-07T14:42:20.568Z,1.38
2022-08-07T14:44:28.041Z,1.40
2022-08-07T14:47:14.262Z,1.90
2022-08-07T14:49:57.923Z,1.70
2022-08-07T14:52:30.725Z,1.50
2022-08-07T14:54:58.526Z,1.90
2022-08-07T14:57:54.450Z,1.70
2022-08-07T15:00:20.687Z,1.50
2022-08-07T15:02:59.793Z,1.65
2022-08-07T15:05:30.369Z,1.77
2022-08-07T15:08:06.070Z,1.70
2022-08-07T15:10:32.904Z,1.20
2022-08-07T15:13:06.262Z,1.30
2022-08-07T15:15:41.968Z,1.67
2022-08-07T15:18:28.547Z,1.63
2022-08-07T15:21:08.143Z,1.40
2022-08-07T15:25:16.379Z,1.70
2022-08-07T15:26:58.236Z,1.65
2022-08-07T15:30:08.742Z,1.60
2022-08-07T15:36:02.430Z,1.95
2022-08-07T15:43:55.797Z,1.40
2022-08-07T15:49:17.780Z,1.65
2022-08-07T15:54:31.324Z,1.23
2022-08-07T15:57:02.387Z,1.50
2022-08-07T15:59:39.898Z,1.83
2022-08-07T16:02:27.332Z,1.95
2022-08-07T16:05:19.485Z,1.90
2022-08-07T16:08:31.179Z,1.52
2022-08-07T16:10:41.214Z,1.80
2022-08-07T16:13:59.728Z,1.88
2022-08-07T16:16:48.418Z,1.58
2022-08-07T16:19:42.297Z,1.48
2022-08-07T16:22:36.364Z,1.50
2022-08-07T16:25:54.283Z,1.75
2022-08-07T16:30:06.725Z,1.75
2022-08-07T16:32:00.687Z,1.33
2022-08-07T16:35:50.685Z,1.90
2022-08-07T16:38:59.949Z,1.13
2022-08-07T16:41:41.155Z,1.42
2022-08-07T16:45:15.084Z,1.60
2022-08-07T16:47:58.549Z,1.33
2022-08-07T16:51:21.834Z,1.58
2022-08-07T16:58:01.951Z,1.60
2022-08-07T17:00:50.592Z,1.50
2022-08-07T17:03:59.633Z,1.60
2022-08-07T17:06:33.702Z,1.50
2022-08-07T17:10:07.928Z,1.83
2022-08-07T17:13:23.697Z,1.95
2022-08-07T17:16:25.040Z,1.88
2022-08-07T17:18:51.840Z,1.92
2022-08-07T17:21:26.590Z,1.75
2022-08-07T17:24:23.628Z,1.63
2022-08-07T17:27:51.046Z,1.60
2022-08-07T17:30:27.029Z,2.35
2022-08-07T17:34:08.953Z,2.13
2022-08-07T17:36:13.656Z,2.47
2022-08-07T17:39:01.348Z,1.60
2022-08-07T17:42:03.721Z,1.85
2022-08-07T17:44:50.692Z,1.27
2022-08-07T17:47:38.091Z,1.50
2022-08-07T17:50:20.442Z,1.63
2022-08-07T17:54:00.094Z,1.75
2022-08-07T17:56:15.509Z,1.40
2022-08-07T17:58:57.019Z,2.08
2022-08-07T18:01:48.359Z,1.90
2022-08-07T18:04:31.260Z,1.95
2022-08-07T18:07:24.344Z,1.30
2022-08-07T18:10:32.694Z,1.40
2022-08-07T18:13:15.415Z,1.67
2022-08-07T18:16:04.717Z,1.40
2022-08-07T18:21:00.800Z,1.77
2022-08-07T18:22:00.451Z,1.83
2022-08-07T18:24:34.213Z,1.48
2022-08-07T18:27:12.350Z,1.63
2022-08-07T18:30:33.097Z,1.65
2022-08-07T18:33:22.151Z,1.88
2022-08-07T18:36:32.806Z,1.50
2022-08-07T18:40:07.330Z,1.90
2022-08-07T18:42:44.145Z,1.60
2022-08-07T18:45:42.966Z,1.65
2022-08-07T18:50:03.428Z,1.90
2022-08-07T18:52:35.451Z,1.67
2022-08-07T18:54:51.012Z,1.63
2022-08-07T18:57:41.844Z,1.90
2022-08-07T19:00:33.420Z,2.80
2022-08-07T19:03:35.560Z,2.65
2022-08-07T19:06:48.361Z,1.90
2022-08-07T19:09:56.002Z,1.90
2022-08-07T19:12:33.407Z,1.80
2022-08-07T19:16:02.836Z,1.65
2022-08-07T19:18:34.665Z,1.67
2022-08-07T19:21:47.899Z,1.48
2022-08-07T19:28:57.514Z,1.48
2022-08-07T19:31:05.678Z,1.73
2022-08-07T19:32:59.577Z,1.73
2022-08-07T19:35:28.309Z,1.92
2022-08-07T19:38:15.746Z,1.70
2022-08-07T19:40:50.347Z,1.42
2022-08-07T19:43:48.698Z,2.22
2022-08-07T19:46:26.809Z,1.40
2022-08-07T19:49:02.340Z,2.05
2022-08-07T19:51:52.839Z,1.67
2022-08-07T19:54:34.645Z,2.00
2022-08-07T19:58:04.682Z,2.88
2022-08-07T20:00:28.545Z,2.33
2022-08-07T20:03:01.825Z,2.90
2022-08-07T20:06:00.094Z,3.42
2022-08-07T20:08:30.143Z,2.70
2022-08-07T20:11:03.689Z,3.85
2022-08-07T20:13:46.792Z,2.95
2022-08-07T20:16:31.987Z,2.22
2022-08-07T20:19:05.910Z,2.05
2022-08-07T20:21:42.119Z,2.33
2022-08-07T20:24:31.430Z,1.40
2022-08-07T20:27:04.024Z,2.10
2022-08-07T20:29:56.787Z,1.70
2022-08-07T20:32:39.775Z,1.70
2022-08-07T20:35:20.572Z,1.70
2022-08-07T20:37:57.811Z,1.35
2022-08-07T20:40:33.124Z,1.52
2022-08-07T20:43:14.478Z,2.03
2022-08-07T20:46:29.182Z,1.35
2022-08-07T20:48:38.217Z,1.77
2022-08-07T20:51:10.045Z,2.15
2022-08-07T20:54:03.534Z,1.60
2022-08-07T20:56:29.104Z,2.15
2022-08-07T20:59:02.464Z,1.38
2022-08-07T21:01:45.281Z,1.48
2022-08-07T21:04:22.716Z,1.30
2022-08-07T21:06:55.087Z,1.50
2022-08-07T21:09:51.848Z,1.50
2022-08-07T21:12:30.849Z,1.80
2022-08-07T21:15:02.791Z,1.42
2022-08-07T21:18:05.700Z,1.35
2022-08-07T21:20:26.806Z,2.03
2022-08-07T21:22:59.288Z,1.42
2022-08-07T21:25:44.803Z,1.58
2022-08-07T21:28:49.267Z,1.60
2022-08-07T21:32:43.032Z,1.52
2022-08-07T21:34:46.010Z,1.50
2022-08-07T21:37:58.737Z,1.60
2022-08-07T21:40:38.153Z,1.60
2022-08-07T21:43:17.539Z,1.70
2022-08-07T21:46:09.033Z,1.40
2022-08-07T21:48:57.489Z,1.42
2022-08-07T21:51:54.568Z,1.77
2022-08-07T21:54:49.944Z,1.38
2022-08-07T21:57:44.691Z,1.70
2022-08-07T22:03:16.472Z,1.77
2022-08-07T22:05:58.274Z,1.75
2022-08-07T22:08:38.961Z,1.23
2022-08-07T22:11:08.212Z,1.63
2022-08-07T22:13:52.250Z,1.58
2022-08-07T22:16:42.110Z,1.17
2022-08-07T22:19:23.751Z,1.60
2022-08-07T22:22:27.553Z,1.65
2022-08-07T22:25:11.090Z,2.30
2022-08-07T22:28:30.202Z,2.00
2022-08-07T22:31:08.101Z,1.83
2022-08-07T22:33:56.299Z,1.77
2022-08-07T22:36:35.057Z,1.45
2022-08-07T22:42:25.839Z,1.50
2022-08-07T22:46:04.236Z,1.80
2022-08-07T22:48:54.848Z,1.85
2022-08-07T22:51:36.458Z,1.35
2022-08-07T22:54:05.714Z,1.40
2022-08-07T22:56:57.724Z,1.75
2022-08-07T23:00:08.945Z,2.10
2022-08-07T23:02:43.510Z,1.60
2022-08-07T23:06:09.433Z,1.85
2022-08-07T23:08:51.518Z,1.48
2022-08-07T23:11:59.045Z,1.77
2022-08-07T23:15:00.615Z,2.13
2022-08-07T23:18:09.339Z,1.80
2022-08-07T23:21:03.007Z,1.35
2022-08-07T23:24:06.216Z,1.83
2022-08-07T23:27:08.629Z,1.77
2022-08-07T23:30:36.212Z,2.10
2022-08-07T23:34:35.499Z,2.40
2022-08-07T23:36:35.504Z,2.00
2022-08-07T23:39:22.095Z,1.85
2022-08-07T23:42:15.525Z,2.22
2022-08-07T23:45:04.692Z,2.20
2022-08-07T23:47:46.651Z,2.05
2022-08-07T23:50:33.450Z,2.30
2022-08-07T23:53:49.407Z,1.90
2022-08-07T23:56:31.147Z,2.03
